createdAt,value
2024-02-20T07:12:47.947Z,90.35
2024-02-20T07:15:19.679Z,90.17
2024-02-20T07:17:52.127Z,89.85
2024-02-20T07:20:27.232Z,89.55
2024-02-20T07:23:00.411Z,89.31
2024-02-20T07:25:31.519Z,89.11
2024-02-20T07:28:02.324Z,88.93
2024-02-20T07:30:32.434Z,88.75
2024-02-20T07:33:02.093Z,88.65
2024-02-20T07:35:32.797Z,88.61
2024-02-20T07:38:02.557Z,88.61
2024-02-20T07:40:32.342Z,88.51
2024-02-20T07:43:03.093Z,88.34
2024-02-20T07:45:32.491Z,88.17
2024-02-20T07:48:02.647Z,88.08
2024-02-20T07:50:33.700Z,87.92
2024-02-20T07:53:04.025Z,87.81
2024-02-20T07:55:34.265Z,87.72
2024-02-20T07:58:04.501Z,87.66
2024-02-20T08:00:34.123Z,87.66
2024-02-20T08:03:04.263Z,87.62
2024-02-20T08:05:34.377Z,87.46
2024-02-20T08:08:04.579Z,87.22
2024-02-20T08:10:34.646Z,87.15
2024-02-20T08:13:04.807Z,87.10
2024-02-20T08:15:35.002Z,87.02
2024-02-20T08:18:06.029Z,87.11
2024-02-20T08:20:36.019Z,87.15
2024-02-20T08:23:06.075Z,87.18
2024-02-20T08:25:35.854Z,87.30
2024-02-20T08:28:05.850Z,87.30
2024-02-20T08:30:35.405Z,87.34
2024-02-20T08:33:05.206Z,87.39
2024-02-20T08:35:35.205Z,87.41
2024-02-20T08:38:06.124Z,87.23
2024-02-20T08:40:36.754Z,87.16
2024-02-20T08:43:06.555Z,87.24
2024-02-20T08:45:36.561Z,87.23
2024-02-20T08:48:07.008Z,87.21
2024-02-20T08:50:37.914Z,87.12
2024-02-20T08:53:12.271Z,87.04
2024-02-20T08:55:42.808Z,86.84
2024-02-20T08:58:13.115Z,86.49
2024-02-20T09:00:43.059Z,86.03
2024-02-20T09:03:12.877Z,85.68
2024-02-20T09:05:43.625Z,85.58
2024-02-20T09:08:14.418Z,84.93
2024-02-20T09:10:45.370Z,84.52
2024-02-20T09:13:15.843Z,84.25
2024-02-20T09:15:47.600Z,83.99
2024-02-20T09:18:17.557Z,83.90
2024-02-20T09:20:47.360Z,83.88
2024-02-20T09:23:17.033Z,83.88
2024-02-20T09:25:47.796Z,83.46
2024-02-20T09:28:17.714Z,83.55
2024-02-20T09:30:47.692Z,83.62
2024-02-20T09:33:20.644Z,83.52
2024-02-20T09:35:51.098Z,83.61
2024-02-20T09:38:21.401Z,83.57
2024-02-20T09:40:51.849Z,83.55
2024-02-20T09:43:21.821Z,83.12
2024-02-20T09:45:53.699Z,82.91
2024-02-20T09:48:25.820Z,83.03
2024-02-20T09:51:02.244Z,82.90
2024-02-20T09:53:36.995Z,82.45
2024-02-20T09:56:08.636Z,82.75
2024-02-20T09:58:43.729Z,82.93
2024-02-20T10:01:18.958Z,82.94
2024-02-20T10:04:07.018Z,82.47
2024-02-20T10:06:41.433Z,81.90
2024-02-20T10:09:10.958Z,81.85
2024-02-20T10:11:42.694Z,81.74
2024-02-20T10:14:12.417Z,81.76
2024-02-20T10:16:45.176Z,81.88
2024-02-20T10:19:22.257Z,81.79
2024-02-20T10:21:55.126Z,81.75
2024-02-20T10:24:31.694Z,81.32
2024-02-20T10:27:05.216Z,81.43
2024-02-20T10:29:35.093Z,81.30
2024-02-20T10:32:04.771Z,81.01
2024-02-20T10:34:34.403Z,81.07
2024-02-20T10:37:08.138Z,81.22
2024-02-20T10:39:37.757Z,81.51
2024-02-20T10:42:11.074Z,81.42
2024-02-20T10:44:44.743Z,80.92
2024-02-20T10:47:17.983Z,80.32
2024-02-20T10:49:49.136Z,79.36
2024-02-20T10:52:19.578Z,78.78
2024-02-20T10:55:02.664Z,78.37
2024-02-20T10:57:43.474Z,78.04
2024-02-20T11:00:14.802Z,77.18
2024-02-20T11:02:47.808Z,76.79
2024-02-20T11:05:19.799Z,77.02
2024-02-20T11:07:49.881Z,76.84
2024-02-20T11:10:23.703Z,76.98
2024-02-20T11:12:53.977Z,75.18
2024-02-20T11:15:31.104Z,74.49
2024-02-20T11:18:00.579Z,74.19
2024-02-20T11:20:30.474Z,74.88
2024-02-20T11:23:12.289Z,74.78
2024-02-20T11:25:45.856Z,75.16
2024-02-20T11:28:18.324Z,74.97
2024-02-20T11:30:49.413Z,74.93
2024-02-20T11:33:20.947Z,74.95
2024-02-20T11:35:51.089Z,75.47
2024-02-20T11:38:23.329Z,75.73
2024-02-20T11:40:53.348Z,76.21
2024-02-20T11:43:24.253Z,76.88
2024-02-20T11:46:02.809Z,77.30
2024-02-20T11:48:33.685Z,77.74
2024-02-20T11:51:04.257Z,77.44
2024-02-20T11:53:34.294Z,77.15
2024-02-20T11:56:03.965Z,76.89
2024-02-20T11:58:33.814Z,76.32
2024-02-20T12:01:07.979Z,75.67
2024-02-20T12:03:39.231Z,75.96
2024-02-20T12:06:11.473Z,75.97
2024-02-20T12:08:48.185Z,76.71
2024-02-20T12:11:22.614Z,77.44
2024-02-20T12:13:53.561Z,77.92
2024-02-20T12:16:28.455Z,77.94
2024-02-20T12:21:35.137Z,78.02
2024-02-20T12:24:09.338Z,78.79
2024-02-20T12:26:39.170Z,78.47
2024-02-20T12:29:08.819Z,77.99
2024-02-20T12:31:38.445Z,76.84
2024-02-20T12:34:08.757Z,76.64
2024-02-20T12:36:40.202Z,75.99
2024-02-20T12:39:09.524Z,75.83
2024-02-20T12:41:40.409Z,76.00
2024-02-20T12:44:10.156Z,75.90
2024-02-20T12:46:41.689Z,75.91
2024-02-20T12:49:11.108Z,76.12
2024-02-20T12:51:41.273Z,76.82
2024-02-20T12:54:11.344Z,77.36
2024-02-20T12:56:41.486Z,77.87
2024-02-20T12:59:11.534Z,78.38
2024-02-20T13:01:41.434Z,78.61
2024-02-20T13:04:11.864Z,78.77
2024-02-20T13:06:41.746Z,78.78
2024-02-20T13:09:12.656Z,79.02
2024-02-20T13:11:44.174Z,79.45
2024-02-20T13:14:14.319Z,80.03
2024-02-20T13:16:47.288Z,80.62
2024-02-20T13:19:18.165Z,80.61
2024-02-20T13:21:48.136Z,80.60
2024-02-20T13:24:18.030Z,80.34
2024-02-20T13:26:49.185Z,79.78
2024-02-20T13:29:18.748Z,79.70
2024-02-20T13:34:49.844Z,79.82
2024-02-20T13:37:20.088Z,79.91
2024-02-20T13:39:50.728Z,80.00
2024-02-20T13:42:21.608Z,80.39
2024-02-20T13:44:51.883Z,80.44
2024-02-20T13:47:24.794Z,80.26
2024-02-20T13:49:55.109Z,80.11
2024-02-20T13:52:25.091Z,79.56
2024-02-20T13:54:54.850Z,79.11
2024-02-20T13:57:24.239Z,78.93
2024-02-20T13:59:53.881Z,79.40
2024-02-20T14:02:23.895Z,79.71
2024-02-20T14:04:53.573Z,79.88
2024-02-20T14:07:23.807Z,79.77
2024-02-20T14:09:54.241Z,79.79
2024-02-20T14:12:26.063Z,80.05
2024-02-20T14:14:57.609Z,80.10
2024-02-20T14:17:28.393Z,80.20
2024-02-20T14:19:58.347Z,80.49
2024-02-20T14:22:28.676Z,80.69
2024-02-20T14:24:59.435Z,81.03
2024-02-20T14:27:30.259Z,80.90
2024-02-20T14:30:00.364Z,79.85
2024-02-20T14:32:30.546Z,78.76
2024-02-20T14:35:00.247Z,78.65
2024-02-20T14:37:30.081Z,78.40
2024-02-20T14:40:00.162Z,78.04
2024-02-20T14:42:30.718Z,77.38
2024-02-20T14:45:02.654Z,77.50
2024-02-20T14:47:33.449Z,77.61
2024-02-20T14:50:02.941Z,77.73
2024-02-20T14:52:32.602Z,78.16
2024-02-20T14:55:02.520Z,79.11
2024-02-20T14:57:32.144Z,79.68
2024-02-20T15:00:01.882Z,79.93
2024-02-20T15:02:31.576Z,80.29
2024-02-20T15:05:02.025Z,80.36
2024-02-20T15:07:31.940Z,80.35
2024-02-20T15:10:01.596Z,79.85
2024-02-20T15:12:33.297Z,80.10
2024-02-20T15:15:03.237Z,80.58
2024-02-20T15:17:37.683Z,80.95
2024-02-20T15:20:09.313Z,81.56
2024-02-20T15:22:42.894Z,82.07
2024-02-20T15:25:18.287Z,82.55
2024-02-20T15:27:50.959Z,83.07
2024-02-20T15:30:22.200Z,83.56
2024-02-20T15:32:52.440Z,83.75
2024-02-20T15:35:25.629Z,83.98
2024-02-20T15:37:55.461Z,84.27
2024-02-20T15:40:25.149Z,84.41
2024-02-20T15:42:56.169Z,84.62
2024-02-20T15:45:26.184Z,84.79
2024-02-20T15:47:56.157Z,84.99
2024-02-20T15:50:26.102Z,85.21
2024-02-20T15:52:56.035Z,85.22
2024-02-20T15:55:26.107Z,85.22
2024-02-20T15:57:55.703Z,85.31
2024-02-20T16:00:25.784Z,85.44
2024-02-20T16:02:55.074Z,85.61
2024-02-20T16:05:25.470Z,85.65
2024-02-20T16:08:00.223Z,85.88
2024-02-20T16:10:29.808Z,86.10
2024-02-20T16:13:02.646Z,86.37
2024-02-20T16:15:35.420Z,86.55
2024-02-20T16:18:05.495Z,86.71
2024-02-20T16:20:35.509Z,86.80
2024-02-20T16:23:05.322Z,86.90
2024-02-20T16:25:35.066Z,87.02
2024-02-20T16:28:05.051Z,86.81
2024-02-20T16:30:35.141Z,86.60
2024-02-20T16:33:05.126Z,86.08
2024-02-20T16:35:35.344Z,85.74
2024-02-20T16:38:05.004Z,85.66
2024-02-20T16:40:35.287Z,85.80
2024-02-20T16:43:05.873Z,85.82
2024-02-20T16:45:36.174Z,85.76
2024-02-20T16:48:07.279Z,85.94
2024-02-20T16:50:37.627Z,86.27
2024-02-20T16:53:07.853Z,86.32
2024-02-20T16:55:37.650Z,86.32
2024-02-20T16:58:07.240Z,86.24
2024-02-20T17:00:36.725Z,86.15
2024-02-20T17:03:08.408Z,86.18
2024-02-20T17:05:38.444Z,86.22
2024-02-20T17:08:09.561Z,86.13
2024-02-20T17:10:39.300Z,85.89
2024-02-20T17:13:09.920Z,85.49
2024-02-20T17:15:39.136Z,85.25
2024-02-20T17:18:08.703Z,84.97
2024-02-20T17:20:39.664Z,84.63
2024-02-20T17:23:10.045Z,84.42
2024-02-20T17:25:41.304Z,84.33
2024-02-20T17:28:11.118Z,84.37
2024-02-20T17:30:40.974Z,84.39
2024-02-20T17:33:10.948Z,84.44
2024-02-20T17:35:40.950Z,84.41
2024-02-20T17:38:10.597Z,84.37
2024-02-20T17:40:40.427Z,84.42
2024-02-20T17:43:10.265Z,84.36
2024-02-20T17:45:39.947Z,84.35
2024-02-20T17:48:09.829Z,84.18
2024-02-20T17:50:39.276Z,84.10
2024-02-20T17:53:09.917Z,84.07
2024-02-20T17:55:39.882Z,84.06
2024-02-20T17:58:09.700Z,84.05
2024-02-20T18:00:39.361Z,84.01
2024-02-20T18:03:09.279Z,83.90
2024-02-20T18:05:38.768Z,83.82
2024-02-20T18:08:08.999Z,83.76
2024-02-20T18:10:38.413Z,83.71
2024-02-20T18:13:08.088Z,83.70
2024-02-20T18:15:38.045Z,83.69
2024-02-20T18:18:08.082Z,83.69
2024-02-20T18:20:38.042Z,83.72
2024-02-20T18:23:08.250Z,83.76
2024-02-20T18:25:38.241Z,83.79
2024-02-20T18:28:08.096Z,83.82
2024-02-20T18:30:38.438Z,83.85
2024-02-20T18:33:08.110Z,83.88
2024-02-20T18:35:37.808Z,83.95
2024-02-20T18:38:08.841Z,84.02
2024-02-20T18:40:38.973Z,84.07
2024-02-20T18:43:09.075Z,84.12
2024-02-20T18:45:39.245Z,84.20
2024-02-20T18:48:12.041Z,84.25
2024-02-20T18:50:42.675Z,84.41
2024-02-20T18:53:12.949Z,84.51
2024-02-20T18:55:42.913Z,84.52
2024-02-20T18:58:12.693Z,84.58
2024-02-20T19:00:43.729Z,84.67
2024-02-20T19:03:13.548Z,84.78
2024-02-20T19:05:43.723Z,84.85
2024-02-20T19:08:13.312Z,84.81
2024-02-20T19:10:43.330Z,84.82
2024-02-20T19:13:14.187Z,84.79
2024-02-20T19:15:44.260Z,84.85
2024-02-20T19:18:15.049Z,84.96
2024-02-20T19:20:45.574Z,85.06
2024-02-20T19:23:15.277Z,85.14
2024-02-20T19:25:45.791Z,85.16
2024-02-20T19:28:15.383Z,85.20
2024-02-20T19:30:45.569Z,85.19
2024-02-20T19:33:16.034Z,85.15
2024-02-20T19:35:47.164Z,85.23
2024-02-20T19:38:19.711Z,85.28
2024-02-20T19:40:52.130Z,85.26
2024-02-20T19:43:22.952Z,85.21
2024-02-20T19:45:53.605Z,85.23
2024-02-20T19:48:25.956Z,85.25
2024-02-20T19:50:56.013Z,85.21
2024-02-20T19:53:27.389Z,85.25
2024-02-20T19:55:58.983Z,85.29
2024-02-20T19:58:31.263Z,85.27
2024-02-20T20:01:01.759Z,85.29
2024-02-20T20:03:32.345Z,85.33
2024-02-20T20:06:07.524Z,85.36
2024-02-20T20:08:42.014Z,85.44
2024-02-20T20:11:12.389Z,85.54
2024-02-20T20:13:42.345Z,85.57
2024-02-20T20:16:12.992Z,85.66
2024-02-20T20:18:43.035Z,85.65
2024-02-20T20:21:12.921Z,85.64
2024-02-20T20:23:43.535Z,85.61
2024-02-20T20:26:13.379Z,85.53
2024-02-20T20:28:43.110Z,85.49
2024-02-20T20:31:13.302Z,85.50
2024-02-20T20:33:44.156Z,85.48
2024-02-20T20:36:14.652Z,85.54
2024-02-20T20:38:45.275Z,85.56
2024-02-20T20:41:15.119Z,85.55
2024-02-20T20:43:45.588Z,85.52
2024-02-20T20:46:15.973Z,85.58
2024-02-20T20:48:46.517Z,85.62
2024-02-20T20:51:16.517Z,85.63
2024-02-20T20:53:46.947Z,85.61
2024-02-20T20:56:16.638Z,85.61
2024-02-20T20:58:46.714Z,85.57
2024-02-20T21:01:18.038Z,85.59
2024-02-20T21:03:47.933Z,85.63
2024-02-20T21:06:20.977Z,85.67
2024-02-20T21:08:51.732Z,85.79
2024-02-20T21:11:21.652Z,85.96
2024-02-20T21:13:51.283Z,86.11
2024-02-20T21:16:23.132Z,86.22
2024-02-20T21:18:54.217Z,86.36
2024-02-20T21:21:25.047Z,86.51
2024-02-20T21:23:55.236Z,86.59
2024-02-20T21:26:25.359Z,86.62
2024-02-20T21:28:55.751Z,86.67
2024-02-20T21:31:25.346Z,86.89
2024-02-20T21:33:56.110Z,87.07
2024-02-20T21:36:26.328Z,87.08
2024-02-20T21:38:55.911Z,87.15
2024-02-20T21:41:25.948Z,87.22
2024-02-20T21:43:55.916Z,87.32
2024-02-20T21:46:26.682Z,87.42
2024-02-20T21:48:56.951Z,87.46
2024-02-20T21:51:30.138Z,87.48
2024-02-20T21:54:03.207Z,87.47
2024-02-20T21:56:33.298Z,87.39
2024-02-20T21:59:02.886Z,87.42
2024-02-20T22:01:32.541Z,87.39
2024-02-20T22:04:03.493Z,87.44
2024-02-20T22:06:33.636Z,87.39
2024-02-20T22:09:04.116Z,87.44
2024-02-20T22:11:34.435Z,87.54
2024-02-20T22:14:05.046Z,87.33
2024-02-20T22:16:34.598Z,87.39
2024-02-20T22:19:10.054Z,87.48
2024-02-20T22:21:39.807Z,87.47
2024-02-20T22:24:09.333Z,87.49
2024-02-20T22:26:39.406Z,87.43
2024-02-20T22:29:08.867Z,87.37
2024-02-20T22:31:38.905Z,87.37
2024-02-20T22:34:08.573Z,87.54
2024-02-20T22:36:38.614Z,87.38
2024-02-20T22:39:08.834Z,87.38
2024-02-20T22:41:38.451Z,87.60
2024-02-20T22:44:09.210Z,87.56
2024-02-20T22:46:40.032Z,87.50
2024-02-20T22:49:12.208Z,87.56
2024-02-20T22:51:42.336Z,87.60
2024-02-20T22:54:12.437Z,87.58
2024-02-20T22:56:43.431Z,87.68
